Time;durP1;ratioP1;P1;durP2;ratioP2;P2;SDS_P1;SDS_P2;PMS_P1;PMS_P2;Temp;Humidity;BMP_temperature;BMP_pressure;BME280_temperature;BME280_humidity;BME280_pressure;Samples;Min_cycle;Max_cycle;Signal;HPM_P1;HPM_P2
2022/02/03 00:00:32;;;;;;;0.00;0.00;;;;;;;3.10;78.99;98210.69;6126828;23;20346;-79
2022/02/03 00:05:42;;;;;;;;;;;;;;;3.06;79.04;98231.53;6153572;23;19997;-80
2022/02/03 00:11:22;;;;;;;0.00;0.00;;;;;;;3.01;78.33;98226.97;6154091;22;20237;-79
2022/02/03 00:25:08;;;;;;;0.00;0.00;;;;;;;3.02;78.67;98222.50;6154276;23;20002;-80
2022/02/03 00:30:15;;;;;;;1.52;1.42;;;;;;;2.99;78.42;98225.63;6154627;23;20005;-79
2022/02/03 00:38:26;;;;;;;0.00;0.00;;;;;;;2.95;78.43;98232.47;6128967;23;20009;-79
2022/02/03 00:52:37;;;;;;;0.00;0.00;;;;;;;2.96;78.41;98239.34;6153560;23;20008;-81
2022/02/03 00:55:04;;;;;;;0.03;0.03;;;;;;;2.92;77.78;98235.59;6127942;23;20033;-80
2022/02/03 00:57:49;;;;;;;0.00;0.00;;;;;;;2.91;78.31;98232.16;6128984;23;20009;-79
2022/02/03 01:00:17;;;;;;;0.00;0.00;;;;;;;2.87;77.61;98234.50;6128208;23;20460;-79
2022/02/03 01:02:44;;;;;;;;;;;;;;;2.87;77.79;98234.50;6128363;23;19997;-79
2022/02/03 01:05:17;;;;;;;0.10;0.10;;;;;;;2.84;77.96;98229.69;6129435;23;19909;-80
2022/02/03 01:07:49;;;;;;;0.05;0.05;;;;;;;2.85;77.26;98227.84;6128818;23;20013;-80
2022/02/03 01:10:38;;;;;;;0.00;0.00;;;;;;;2.77;77.43;98237.00;6127372;23;20359;-79
2022/02/03 01:13:19;;;;;;;3.75;2.65;;;;;;;2.76;77.96;98229.31;6152861;23;20005;-79
2022/02/03 01:16:01;;;;;;;0.00;0.00;;;;;;;2.74;77.60;98229.56;6128431;23;20001;-79
2022/02/03 01:35:12;;;;;;;0.00;0.00;;;;;;;2.71;76.80;98244.06;6153894;23;20020;-79
2022/02/03 01:43:35;;;;;;;0.00;0.00;;;;;;;2.73;76.27;98249.09;6153751;23;20015;-80
2022/02/03 01:46:11;;;;;;;0.10;0.10;;;;;;;2.79;76.81;98263.94;6128036;23;20013;-79
2022/02/03 01:49:03;;;;;;;0.00;0.00;;;;;;;2.78;76.48;98258.94;6129106;23;20031;-79
2022/02/03 01:51:48;;;;;;;0.00;0.00;;;;;;;2.74;75.85;98255.97;6153301;23;20084;-80
2022/02/03 01:54:16;;;;;;;0.10;0.10;;;;;;;2.76;76.20;98259.19;6128264;23;20005;-80
2022/02/03 01:56:55;;;;;;;0.00;0.00;;;;;;;2.78;76.00;98257.06;6127908;23;20349;-80
2022/02/03 02:13:01;;;;;;;0.00;0.00;;;;;;;2.90;75.72;98264.09;6215604;23;20062;-79
2022/02/03 02:40:04;;;;;;;0.00;0.00;;;;;;;2.85;75.42;98276.19;6155037;23;20001;-78
2022/02/03 02:43:08;;;;;;;0.10;0.10;;;;;;;2.83;75.73;98288.03;6128555;23;20012;-79
2022/02/03 02:45:55;;;;;;;0.28;0.28;;;;;;;2.82;75.39;98284.59;6220382;23;20000;-81
2022/02/03 02:49:13;;;;;;;0.00;0.00;;;;;;;2.82;75.25;98297.00;6210461;23;20005;-79
2022/02/03 02:52:12;;;;;;;0.05;0.05;;;;;;;2.82;75.31;98289.06;6101443;23;20002;-81
2022/02/03 03:35:35;;;;;;;0.00;0.00;;;;;;;2.84;74.37;98308.91;6123397;23;20450;-78
2022/02/03 03:38:37;;;;;;;0.75;0.75;;;;;;;2.83;74.20;98309.16;6099501;23;20002;-81
2022/02/03 03:41:04;;;;;;;0.10;0.10;;;;;;;2.86;74.60;98317.41;6156963;23;20005;-78
2022/02/03 03:47:29;;;;;;;0.00;0.00;;;;;;;2.92;73.98;98331.47;6140149;23;20058;-82
2022/02/03 03:50:38;;;;;;;0.00;0.00;;;;;;;2.93;74.27;98330.44;6153549;23;20012;-81
2022/02/03 03:57:06;;;;;;;0.00;0.00;;;;;;;2.94;74.46;98342.63;6141441;22;20044;-80
2022/02/03 04:30:11;;;;;;;0.10;0.10;;;;;;;3.10;73.80;98380.59;6122816;23;20133;-80
2022/02/03 04:51:21;;;;;;;0.00;0.00;;;;;;;3.21;74.47;98386.81;6123736;23;20016;-81
2022/02/03 05:00:28;;;;;;;0.45;0.45;;;;;;;3.26;74.64;98413.31;6126676;23;20041;-82
2022/02/03 05:03:04;;;;;;;0.00;0.00;;;;;;;3.24;74.59;98406.69;6111032;23;20006;-80
2022/02/03 05:33:15;;;;;;;0.00;0.00;;;;;;;3.41;75.48;98470.09;6128795;23;20040;-82
2022/02/03 06:01:31;;;;;;;0.00;0.00;;;;;;;3.34;76.35;98528.38;6149205;23;20029;-77
2022/02/03 06:14:35;;;;;;;0.08;0.08;;;;;;;3.35;76.10;98559.06;6151727;23;20057;-78
2022/02/03 06:27:22;;;;;;;0.32;0.32;;;;;;;3.37;76.54;98578.13;6151333;22;20005;-78
2022/02/03 06:27:41;;;;;;;0.00;0.00;;;;;;;3.40;76.31;98590.84;6151233;23;20138;-80
2022/02/03 06:30:08;;;;;;;0.00;0.00;;;;;;;3.40;76.48;98596.16;6125535;23;20016;-79
2022/02/03 06:32:37;;;;;;;0.00;0.00;;;;;;;3.40;76.03;98598.00;6124119;23;20429;-77
2022/02/03 06:35:03;;;;;;;0.03;0.03;;;;;;;3.41;76.37;98608.31;6124387;23;20059;-78
2022/02/03 06:37:29;;;;;;;1.85;0.75;;;;;;;3.44;76.55;98620.25;6148279;23;20469;-78
2022/02/03 06:39:55;;;;;;;0.90;0.90;;;;;;;3.46;76.30;98621.63;6150845;23;20075;-77
2022/02/03 06:42:20;;;;;;;1.67;0.80;;;;;;;3.51;75.96;98624.34;6125246;23;20430;-78
2022/02/03 06:44:51;;;;;;;0.70;0.70;;;;;;;3.55;76.25;98626.53;6124798;23;20071;-81
2022/02/03 06:47:32;;;;;;;0.00;0.00;;;;;;;3.60;76.61;98626.59;6125796;23;20062;-79
2022/02/03 06:50:07;;;;;;;0.47;0.47;;;;;;;3.66;75.91;98636.22;6125831;23;20021;-78
2022/02/03 06:53:02;;;;;;;0.00;0.00;;;;;;;3.65;75.67;98632.78;6150770;23;20002;-78
2022/02/03 06:58:14;;;;;;;0.32;0.32;;;;;;;3.81;75.97;98646.25;6150900;23;20434;-79
2022/02/03 07:00:45;;;;;;;0.00;0.00;;;;;;;3.85;75.24;98650.00;6124798;23;20009;-79
2022/02/03 07:03:18;;;;;;;0.15;0.15;;;;;;;3.89;74.67;98642.38;6124401;23;20047;-78
2022/02/03 07:05:44;;;;;;;0.03;0.03;;;;;;;3.97;75.00;98649.91;6125061;23;20363;-79
2022/02/03 07:08:18;;;;;;;0.00;0.00;;;;;;;4.06;74.94;98652.94;6124577;23;20009;-79
2022/02/03 07:10:44;;;;;;;0.00;0.00;;;;;;;4.11;74.50;98655.66;6123835;23;20005;-78
2022/02/03 07:13:10;;;;;;;0.00;0.00;;;;;;;4.17;74.16;98659.97;6123102;23;20014;-78
2022/02/03 07:15:36;;;;;;;0.00;0.00;;;;;;;4.25;74.30;98664.09;6127767;23;20012;-80
2022/02/03 07:18:03;;;;;;;0.00;0.00;;;;;;;4.28;73.90;98663.56;6124355;23;20040;-79
2022/02/03 07:20:30;;;;;;;0.00;0.00;;;;;;;4.32;73.33;98662.03;6123498;23;20203;-79
2022/02/03 07:22:55;;;;;;;1.27;1.17;;;;;;;4.36;73.22;98678.22;6123705;23;20401;-77
2022/02/03 07:25:21;;;;;;;0.28;0.28;;;;;;;4.41;73.94;98670.38;6123882;23;20017;-78
2022/02/03 07:27:49;;;;;;;0.52;0.52;;;;;;;4.44;73.05;98673.34;6150002;23;20009;-78
2022/02/03 07:57:28;;;;;;;0.28;0.28;;;;;;;5.18;71.56;98695.13;6229053;22;20003;-80
2022/02/03 08:00:08;;;;;;;0.00;0.00;;;;;;;5.40;71.51;98712.88;6220267;22;20009;-80
2022/02/03 08:03:35;;;;;;;0.00;0.00;;;;;;;5.47;70.29;98710.81;6223761;23;20012;-82
2022/02/03 08:09:29;;;;;;;0.00;0.00;;;;;;;5.58;70.22;98720.47;6253059;22;20071;-82
2022/02/03 08:14:48;;;;;;;0.00;0.00;;;;;;;5.75;69.24;98724.88;6278736;22;20396;-77
2022/02/03 08:17:23;;;;;;;0.08;0.08;;;;;;;5.85;69.12;98730.25;6247380;22;20467;-76
2022/02/03 08:19:58;;;;;;;0.00;0.00;;;;;;;5.87;69.04;98736.13;6274183;22;20494;-76
2022/02/03 08:22:33;;;;;;;0.40;0.40;;;;;;;5.92;68.82;98735.38;6274451;22;20050;-76
2022/02/03 08:32:37;;;;;;;0.10;0.10;;;;;;;6.20;68.52;98754.72;6272700;22;20015;-78
2022/02/03 08:38:20;;;;;;;0.10;0.10;;;;;;;6.29;66.98;98760.38;6279511;22;20076;-78
2022/02/03 08:40:43;;;;;;;0.00;0.00;;;;;;;6.32;67.73;98771.25;6267072;22;20014;-79
2022/02/03 08:43:10;;;;;;;0.22;0.22;;;;;;;6.44;67.57;98776.41;6253611;22;20003;-79
2022/02/03 08:45:35;;;;;;;0.00;0.00;;;;;;;6.50;66.29;98782.56;6258348;22;20004;-80
2022/02/03 08:48:07;;;;;;;0.00;0.00;;;;;;;6.54;67.37;98781.81;6266396;22;20148;-81
2022/02/03 08:50:55;;;;;;;3.33;0.73;;;;;;;6.61;65.87;98780.78;6237116;22;20004;-82
2022/02/03 08:53:52;;;;;;;;;;;;;;;6.72;67.00;98783.22;6260715;22;20065;-80
2022/02/03 09:50:34;;;;;;;0.00;0.00;;;;;;;7.20;64.31;98848.88;6122986;23;20090;-79
2022/02/03 09:58:15;;;;;;;0.00;0.00;;;;;;;7.16;65.01;98834.50;6122322;23;20370;-79
2022/02/03 10:03:19;;;;;;;0.00;0.00;;;;;;;7.23;64.41;98843.06;6121934;23;20017;-79
2022/02/03 10:06:07;;;;;;;0.10;0.10;;;;;;;7.21;64.76;98847.84;6096556;23;20014;-79
2022/02/03 10:08:41;;;;;;;0.75;0.75;;;;;;;7.24;65.33;98841.19;6106748;23;19994;-81
2022/02/03 10:11:14;;;;;;;0.20;0.20;;;;;;;7.29;64.26;98851.88;6097920;23;20010;-80
2022/02/03 10:14:01;;;;;;;0.08;0.08;;;;;;;7.26;64.84;98845.19;6096478;23;20002;-79
2022/02/03 10:16:29;;;;;;;0.43;0.43;;;;;;;7.22;64.06;98846.78;6094489;23;20425;-78
2022/02/03 10:19:15;;;;;;;0.22;0.22;;;;;;;7.24;63.66;98852.66;6126456;23;20032;-81
2022/02/03 10:21:51;;;;;;;0.00;0.00;;;;;;;7.24;63.47;98852.66;6111088;23;20068;-81
2022/02/03 10:24:37;;;;;;;0.00;0.00;;;;;;;7.32;63.66;98864.66;6158973;22;20022;-79
2022/02/03 10:27:03;;;;;;;3.08;2.08;;;;;;;7.35;63.22;98853.50;6126410;23;19998;-79
2022/02/03 10:29:44;;;;;;;0.20;0.20;;;;;;;7.37;63.21;98865.47;6125640;23;20056;-79
2022/02/03 10:32:38;;;;;;;0.03;0.03;;;;;;;7.45;63.61;98872.16;6104960;23;20005;-81
2022/02/03 10:35:18;;;;;;;0.28;0.28;;;;;;;7.44;62.86;98867.09;6130860;23;20081;-81
2022/02/03 10:50:20;;;;;;;0.00;0.00;;;;;;;7.69;62.72;98879.72;6155987;23;20423;-80
2022/02/03 10:58:28;;;;;;;0.00;0.00;;;;;;;7.95;62.11;98893.13;6137012;23;20009;-79
2022/02/03 11:06:20;;;;;;;0.00;0.00;;;;;;;8.14;61.36;98896.06;6151864;23;19998;-79
2022/02/03 11:11:22;;;;;;;0.90;0.90;;;;;;;8.06;61.40;98896.59;6150777;23;20012;-79
2022/02/03 11:13:50;;;;;;;0.00;0.00;;;;;;;8.05;60.17;98895.78;6150512;23;20094;-80
2022/02/03 11:16:17;;;;;;;0.20;0.20;;;;;;;8.10;61.19;98900.34;6101073;23;20018;-80
2022/02/03 11:18:45;;;;;;;0.10;0.10;;;;;;;8.11;59.64;98896.63;6124731;23;20059;-77
2022/02/03 11:21:12;;;;;;;;;;;;;;;8.09;57.90;98901.38;6152216;22;20481;-78
2022/02/03 11:23:51;;;;;;;0.17;0.17;;;;;;;8.05;57.65;98906.44;6124257;23;19990;-81
2022/02/03 11:26:31;;;;;;;0.00;0.00;;;;;;;8.02;55.41;98904.31;6151303;22;19998;-80
2022/02/03 11:34:47;;;;;;;0.00;0.00;;;;;;;7.92;57.07;98902.44;6129561;23;20024;-79
2022/02/03 12:03:13;;;;;;;0.00;0.00;;;;;;;7.69;61.99;98923.09;6152285;23;20001;-79
2022/02/03 12:27:04;;;;;;;0.00;0.00;;;;;;;7.55;63.06;98940.59;6149717;23;20009;-77
2022/02/03 12:29:52;;;;;;;0.00;0.00;;;;;;;7.57;63.01;98932.34;6149062;23;20084;-77
2022/02/03 12:33:17;;;;;;;0.25;0.25;;;;;;;7.57;62.62;98943.00;6148825;23;20009;-77
2022/02/03 12:40:32;;;;;;;0.00;0.00;;;;;;;7.58;64.73;98950.72;6149190;23;20010;-77
2022/02/03 12:43:40;;;;;;;0.00;0.00;;;;;;;7.62;64.01;98948.34;6149120;23;20010;-77
2022/02/03 12:45:59;;;;;;;0.00;0.00;;;;;;;7.71;64.45;98946.00;6152894;23;20012;-77
2022/02/03 12:48:27;;;;;;;0.00;0.00;;;;;;;7.77;63.72;98950.28;6148791;23;20095;-78
2022/02/03 12:50:55;;;;;;;0.00;0.00;;;;;;;7.76;62.74;98954.78;6122253;23;20045;-79
2022/02/03 12:53:21;;;;;;;0.00;0.00;;;;;;;7.82;62.56;98955.63;6122673;23;20013;-78
2022/02/03 12:55:51;;;;;;;2.80;1.55;;;;;;;7.90;62.29;98954.31;6122464;23;20067;-78
2022/02/03 12:58:21;;;;;;;0.00;0.00;;;;;;;7.92;62.67;98961.00;6148662;23;20020;-78
2022/02/03 13:00:55;;;;;;;0.00;0.00;;;;;;;8.02;62.19;98968.25;6122179;23;20009;-77
2022/02/03 13:03:52;;;;;;;0.00;0.00;;;;;;;8.03;61.16;98964.50;6148562;23;20418;-78
2022/02/03 13:06:19;;;;;;;0.85;0.85;;;;;;;7.96;60.81;98964.75;6148408;23;20017;-77
2022/02/03 13:08:59;;;;;;;0.22;0.22;;;;;;;8.01;60.34;98975.41;6147945;23;20013;-76
2022/02/03 13:17:08;;;;;;;0.55;0.55;;;;;;;8.00;60.33;98987.13;6147981;23;20001;-79
2022/02/03 13:25:06;;;;;;;0.00;0.00;;;;;;;8.04;59.96;98984.75;6149779;23;20447;-78
2022/02/03 13:27:53;;;;;;;0.05;0.05;;;;;;;8.01;60.16;98988.72;6149629;23;20497;-78
2022/02/03 13:30:43;;;;;;;0.00;0.00;;;;;;;7.92;57.18;99008.13;6123065;23;20040;-78
2022/02/03 13:33:18;;;;;;;0.57;0.57;;;;;;;7.85;57.30;99006.50;6150003;23;20035;-77
2022/02/03 13:39:05;;;;;;;0.00;0.00;;;;;;;7.73;55.84;99013.09;6149746;23;20442;-78
2022/02/03 13:41:12;;;;;;;0.15;0.15;;;;;;;7.70;56.64;99011.72;6145871;23;20448;-78
2022/02/03 13:43:40;;;;;;;0.00;0.00;;;;;;;7.65;55.23;99009.88;6124153;23;20442;-78
2022/02/03 13:46:07;;;;;;;0.08;0.08;;;;;;;7.66;55.35;99019.44;6151069;23;20009;-78
2022/02/03 13:48:32;;;;;;;1.85;0.65;;;;;;;7.59;54.77;99002.91;6123884;23;20543;-78
2022/02/03 13:51:01;;;;;;;0.00;0.00;;;;;;;7.61;55.10;99003.44;6150180;23;20074;-78
2022/02/03 13:53:45;;;;;;;0.00;0.00;;;;;;;7.57;53.31;99001.53;6124236;23;20092;-79
2022/02/03 14:21:38;;;;;;;0.00;0.00;;;;;;;7.39;53.09;99032.84;6148837;23;20013;-74
2022/02/03 14:29:22;;;;;;;0.08;0.08;;;;;;;7.22;52.11;99041.72;6150586;23;20005;-76
2022/02/03 14:31:57;;;;;;;0.00;0.00;;;;;;;7.18;51.97;99047.84;6149811;23;20036;-77
2022/02/03 14:34:27;;;;;;;15.45;2.28;;;;;;;7.14;51.88;99033.41;6150050;23;20005;-76
2022/02/03 14:39:59;;;;;;;0.25;0.25;;;;;;;7.02;51.85;99041.59;6174040;23;20009;-78
2022/02/03 14:42:28;;;;;;;0.22;0.22;;;;;;;6.97;52.17;99052.16;6125730;23;20070;-78
2022/02/03 14:44:53;;;;;;;0.13;0.13;;;;;;;6.96;52.59;99056.69;6150487;23;20006;-76
2022/02/03 14:47:22;;;;;;;0.00;0.00;;;;;;;6.94;53.13;99056.13;6149823;23;20118;-79
2022/02/03 14:49:47;;;;;;;0.00;0.00;;;;;;;6.89;53.31;99056.88;6124424;23;20010;-77
2022/02/03 14:52:33;;;;;;;0.03;0.03;;;;;;;6.88;52.66;99059.78;6151688;23;20006;-79
2022/02/03 15:00:27;;;;;;;0.08;0.08;;;;;;;6.71;53.26;99062.53;6149275;23;20513;-79
2022/02/03 15:02:54;;;;;;;0.22;0.22;;;;;;;6.71;54.15;99073.16;6149935;23;20123;-76
2022/02/03 15:05:31;;;;;;;0.10;0.10;;;;;;;6.67;54.18;99083.50;6149549;23;20002;-76
2022/02/03 15:08:06;;;;;;;0.10;0.10;;;;;;;6.66;54.92;99087.19;6149557;23;20005;-77
2022/02/03 15:10:50;;;;;;;0.55;0.55;;;;;;;6.65;55.24;99074.16;6149786;23;20237;-76
2022/02/03 15:13:40;;;;;;;0.68;0.68;;;;;;;6.64;55.86;99078.69;6123877;23;20043;-77
2022/02/03 15:16:05;;;;;;;0.00;0.00;;;;;;;6.56;55.69;99087.88;6149508;23;20006;-76
2022/02/03 15:18:31;;;;;;;0.10;0.10;;;;;;;6.51;54.55;99095.81;6149911;23;20064;-77
2022/02/03 15:20:56;;;;;;;1.23;1.17;;;;;;;6.47;55.04;99101.84;6123729;23;20009;-77
2022/02/03 15:23:23;;;;;;;0.00;0.00;;;;;;;6.45;55.06;99112.72;6149514;23;20080;-77
2022/02/03 15:25:48;;;;;;;0.00;0.00;;;;;;;6.38;54.38;99102.31;6123400;23;20006;-76
2022/02/03 15:28:14;;;;;;;0.05;0.05;;;;;;;6.31;54.55;99111.50;6149312;23;20027;-77
2022/02/03 15:30:40;;;;;;;9.85;0.93;;;;;;;6.28;54.53;99112.78;6149681;23;20005;-77
2022/02/03 15:33:05;;;;;;;0.00;0.00;;;;;;;6.23;54.84;99120.69;6149618;23;20430;-77
2022/02/03 15:35:35;;;;;;;0.00;0.00;;;;;;;6.24;55.32;99109.81;6149328;23;20084;-77
2022/02/03 15:38:02;;;;;;;0.88;0.52;;;;;;;6.19;54.93;99131.00;6148964;23;20006;-77
2022/02/03 15:40:29;;;;;;;0.00;0.00;;;;;;;6.16;55.30;99123.50;6149249;23;20012;-77
2022/02/03 15:45:54;;;;;;;0.57;0.57;;;;;;;6.07;55.33;99130.31;6116953;23;20013;-77
2022/02/03 16:17:25;;;;;;;0.52;0.52;;;;;;;5.72;57.85;99153.34;6148766;23;20365;-76
2022/02/03 16:22:42;;;;;;;1.48;1.30;;;;;;;5.63;58.29;99156.66;6148821;23;20474;-76
2022/02/03 16:25:28;;;;;;;0.17;0.17;;;;;;;5.59;58.58;99157.16;6148876;23;20017;-75
2022/02/03 16:54:52;;;;;;;0.45;0.45;;;;;;;5.30;60.51;99196.16;6148602;23;20533;-77
2022/02/03 16:57:22;;;;;;;0.00;0.00;;;;;;;5.29;59.60;99194.56;6149937;23;20005;-77
2022/02/03 17:00:09;;;;;;;0.00;0.00;;;;;;;5.26;59.75;99200.31;6147279;23;20788;-77
2022/02/03 17:02:34;;;;;;;0.10;0.10;;;;;;;5.23;59.95;99198.16;6149159;23;20001;-77
2022/02/03 17:05:00;;;;;;;0.00;0.00;;;;;;;5.20;59.39;99198.63;6122810;23;20017;-76
2022/02/03 17:07:27;;;;;;;0.00;0.00;;;;;;;5.17;59.42;99199.91;6149332;23;20005;-76
2022/02/03 17:09:52;;;;;;;0.10;0.10;;;;;;;5.14;59.37;99208.34;6149104;23;20012;-76
2022/02/03 17:12:19;;;;;;;0.00;0.00;;;;;;;5.09;59.52;99200.25;6149208;23;20010;-76
2022/02/03 17:14:45;;;;;;;0.80;0.65;;;;;;;5.08;59.51;99211.94;6149338;23;20002;-78
2022/02/03 17:17:12;;;;;;;0.32;0.30;;;;;;;5.05;59.54;99215.03;6123400;23;20010;-78
2022/02/03 17:19:39;;;;;;;2.28;0.65;;;;;;;5.01;59.70;99227.94;6150131;22;20089;-79
2022/02/03 17:22:05;;;;;;;0.65;0.65;;;;;;;4.96;59.91;99228.66;6123124;23;20370;-77
2022/02/03 17:24:34;;;;;;;0.00;0.00;;;;;;;4.94;59.74;99225.44;6149938;23;20013;-77
2022/02/03 17:27:26;;;;;;;0.00;0.00;;;;;;;4.94;59.80;99229.94;6150024;23;20040;-79
2022/02/03 17:30:00;;;;;;;0.63;0.63;;;;;;;4.93;59.61;99242.38;6148463;23;20033;-78
2022/02/03 18:57:11;;;;;;;0.00;0.00;;;;;;;5.33;62.82;99332.78;6148474;23;20071;-78
2022/02/03 20:23:14;;;;;;;0.00;0.00;;;;;;;5.07;73.20;99359.56;6241196;23;20005;-79
2022/02/03 20:25:42;;;;;;;0.00;0.00;;;;;;;5.06;73.95;99352.63;6215722;23;20016;-78
2022/02/03 20:28:09;;;;;;;1.98;1.10;;;;;;;5.03;74.51;99354.94;6215241;23;20010;-78
2022/02/03 20:30:35;;;;;;;0.00;0.00;;;;;;;5.02;74.64;99369.25;6217263;23;20007;-78
2022/02/03 20:33:01;;;;;;;0.00;0.00;;;;;;;5.02;74.96;99372.72;6242067;23;20004;-78
2022/02/03 20:35:27;;;;;;;0.00;0.00;;;;;;;4.98;74.97;99374.22;6183703;22;20083;-80
2022/02/03 20:37:53;;;;;;;0.00;0.00;;;;;;;4.97;74.95;99368.09;6119624;23;20348;-81
2022/02/03 20:40:45;;;;;;;0.00;0.00;;;;;;;4.93;75.03;99380.22;6119735;23;20036;-79
2022/02/03 20:43:11;;;;;;;0.00;0.00;;;;;;;4.93;75.33;99379.38;6120023;23;20519;-80
2022/02/03 20:45:39;;;;;;;0.73;0.73;;;;;;;4.92;75.47;99367.16;6119118;23;20063;-77
2022/02/03 20:48:05;;;;;;;0.00;0.00;;;;;;;4.87;74.83;99372.34;6118182;23;20012;-79
2022/02/03 21:01:35;;;;;;;0.20;0.20;;;;;;;4.78;72.93;99363.94;6091316;23;20034;-80
2022/02/03 21:04:07;;;;;;;0.00;0.00;;;;;;;4.76;72.01;99364.19;6065068;23;20072;-80
2022/02/03 21:06:37;;;;;;;0.00;0.00;;;;;;;4.76;72.11;99363.34;6065845;23;20006;-80
2022/02/03 21:09:05;;;;;;;0.00;0.00;;;;;;;4.72;72.12;99364.88;6019273;23;20014;-79
2022/02/03 21:11:30;;;;;;;0.00;0.00;;;;;;;4.70;71.38;99362.44;6065674;23;20037;-79
2022/02/03 21:14:45;;;;;;;0.00;0.00;;;;;;;4.68;70.66;99369.03;6068203;23;20030;-80
2022/02/03 21:20:14;;;;;;;0.20;0.20;;;;;;;4.60;68.09;99367.50;6243746;22;20014;-81
2022/02/03 21:22:40;;;;;;;0.00;0.00;;;;;;;4.58;67.56;99380.19;6344487;22;20038;-79
2022/02/03 21:25:17;;;;;;;0.00;0.00;;;;;;;4.55;66.86;99380.63;6368510;22;20001;-80
2022/02/03 21:27:43;;;;;;;0.00;0.00;;;;;;;4.54;66.14;99379.81;6341042;22;20022;-78
2022/02/03 21:30:10;;;;;;;0.00;0.00;;;;;;;4.47;64.77;99377.25;6341028;22;20055;-79
2022/02/03 21:32:37;;;;;;;0.05;0.05;;;;;;;4.46;64.76;99377.50;6341258;22;20427;-79
2022/02/03 21:35:05;;;;;;;0.00;0.00;;;;;;;4.45;64.28;99381.19;6340697;22;20002;-79
2022/02/03 21:37:31;;;;;;;0.00;0.00;;;;;;;4.42;63.34;99382.44;6340856;22;20006;-79
2022/02/03 21:39:57;;;;;;;0.52;0.52;;;;;;;4.41;63.42;99378.19;6340530;22;20068;-79
2022/02/03 21:42:22;;;;;;;0.00;0.00;;;;;;;4.36;63.40;99388.66;6341409;22;20377;-79
2022/02/03 21:44:47;;;;;;;0.00;0.00;;;;;;;4.34;63.11;99382.75;6341036;22;20019;-78
2022/02/03 21:47:13;;;;;;;0.00;0.00;;;;;;;4.32;63.02;99388.28;6340962;22;20010;-80
2022/02/03 21:49:38;;;;;;;0.00;0.00;;;;;;;4.27;61.71;99377.56;6341007;22;20088;-79
2022/02/03 21:52:04;;;;;;;0.00;0.00;;;;;;;4.26;61.54;99385.72;6340670;22;20423;-79
2022/02/03 21:54:34;;;;;;;0.00;0.00;;;;;;;4.23;61.75;99392.28;6341537;22;20481;-79
2022/02/03 21:57:00;;;;;;;0.00;0.00;;;;;;;4.19;61.06;99388.47;6341587;22;20404;-79
2022/02/03 21:59:26;;;;;;;0.00;0.00;;;;;;;4.19;61.23;99385.84;6341035;22;20037;-79
2022/02/03 22:01:51;;;;;;;0.00;0.00;;;;;;;4.18;61.10;99388.72;6341311;22;19999;-79
2022/02/03 22:04:17;;;;;;;0.00;0.00;;;;;;;4.13;60.37;99382.22;6340962;22;20038;-78
2022/02/03 22:06:42;;;;;;;0.00;0.00;;;;;;;4.11;60.90;99381.69;6341101;22;20009;-79
2022/02/03 22:09:07;;;;;;;0.00;0.00;;;;;;;4.10;60.66;99384.53;6341134;22;20006;-78
2022/02/03 22:11:33;;;;;;;1.00;1.00;;;;;;;4.06;60.57;99378.88;6338752;22;20363;-78
2022/02/03 22:13:59;;;;;;;0.00;0.00;;;;;;;4.04;59.96;99388.91;6339897;22;20005;-78
2022/02/03 22:16:27;;;;;;;0.00;0.00;;;;;;;4.01;60.12;99387.47;6369304;22;20006;-78
2022/02/03 22:18:52;;;;;;;0.10;0.10;;;;;;;4.03;60.01;99397.88;6341105;22;20140;-78
2022/02/03 22:21:47;;;;;;;0.00;0.00;;;;;;;3.99;59.05;99399.31;6341257;22;20461;-79
2022/02/03 22:24:23;;;;;;;0.00;0.00;;;;;;;3.94;58.93;99402.66;6341265;22;20026;-79
2022/02/03 22:27:10;;;;;;;0.00;0.00;;;;;;;3.90;59.04;99390.88;6340975;22;20427;-79
2022/02/03 22:53:53;;;;;;;0.00;0.00;;;;;;;3.74;58.26;99402.91;6152448;23;20091;-81
2022/02/03 22:56:18;;;;;;;0.00;0.00;;;;;;;3.71;58.03;99395.41;6102297;23;20013;-80
2022/02/03 23:01:25;;;;;;;0.00;0.00;;;;;;;3.74;58.69;99410.03;6149537;23;20374;-79
2022/02/03 23:04:00;;;;;;;0.00;0.00;;;;;;;3.74;58.66;99407.38;6135750;23;20448;-81
2022/02/03 23:06:26;;;;;;;0.00;0.00;;;;;;;3.70;58.31;99404.38;6148417;23;19998;-79
2022/02/03 23:08:57;;;;;;;0.28;0.28;;;;;;;3.71;58.22;99405.16;6147996;23;20024;-79
2022/02/03 23:17:32;;;;;;;0.00;0.00;;;;;;;3.67;58.08;99413.56;6150818;23;20066;-80
2022/02/03 23:22:22;;;;;;;0.00;0.00;;;;;;;3.63;57.77;99398.34;6149386;23;20005;-79
2022/02/03 23:24:48;;;;;;;0.00;0.00;;;;;;;3.65;57.58;99401.56;6148032;23;20009;-79
2022/02/03 23:30:03;;;;;;;0.00;0.00;;;;;;;3.65;57.72;99401.56;6150047;23;20016;-79
2022/02/03 23:32:50;;;;;;;0.80;0.60;;;;;;;3.62;57.66;99413.41;6149721;23;20088;-79
2022/02/03 23:35:19;;;;;;;0.00;0.00;;;;;;;3.66;57.75;99416.41;6147902;23;20011;-79
2022/02/03 23:37:52;;;;;;;0.00;0.00;;;;;;;3.64;57.80;99410.56;6148524;23;20649;-79
2022/02/03 23:40:25;;;;;;;0.05;0.05;;;;;;;3.63;57.87;99412.38;6147470;23;20145;-79
